sensor_id;sensor_type;location;lat;lon;timestamp;pressure;altitude;pressure_sealevel;temperature;humidity
63194;BME280;49289;51.670;5.624;2022-09-24T00:00:01;101442.97;;;20.25;65.64
63194;BME280;49289;51.670;5.624;2022-09-24T00:01:49;101429.16;;;20.14;65.57
63194;BME280;49289;51.670;5.624;2022-09-24T00:03:36;101431.72;;;20.25;65.51
63194;BME280;49289;51.670;5.624;2022-09-24T00:05:23;101447.77;;;20.30;65.63
63194;BME280;49289;51.670;5.624;2022-09-24T00:07:10;101447.43;;;20.08;65.93
63194;BME280;49289;51.670;5.624;2022-09-24T00:08:57;101433.30;;;19.99;65.77
63194;BME280;49289;51.670;5.624;2022-09-24T00:10:48;101443.77;;;19.97;66.05
63194;BME280;49289;51.670;5.624;2022-09-24T00:12:36;101429.91;;;19.94;65.79
63194;BME280;49289;51.670;5.624;2022-09-24T00:14:24;101446.38;;;20.03;65.60
63194;BME280;49289;51.670;5.624;2022-09-24T00:16:13;101443.87;;;20.18;65.43
63194;BME280;49289;51.670;5.624;2022-09-24T00:18:01;101438.82;;;19.93;65.95
63194;BME280;49289;51.670;5.624;2022-09-24T00:19:49;101437.89;;;19.80;65.97
63194;BME280;49289;51.670;5.624;2022-09-24T00:21:36;101431.30;;;19.62;66.33
63194;BME280;49289;51.670;5.624;2022-09-24T00:23:23;101424.23;;;19.52;66.65
63194;BME280;49289;51.670;5.624;2022-09-24T00:25:11;101435.34;;;19.95;65.77
63194;BME280;49289;51.670;5.624;2022-09-24T00:26:58;101438.88;;;20.03;65.37
63194;BME280;49289;51.670;5.624;2022-09-24T00:28:45;101434.78;;;19.89;65.74
63194;BME280;49289;51.670;5.624;2022-09-24T00:30:32;101420.37;;;19.97;65.54
63194;BME280;49289;51.670;5.624;2022-09-24T00:32:20;101428.08;;;20.14;65.16
63194;BME280;49289;51.670;5.624;2022-09-24T00:34:09;101443.14;;;19.67;65.73
63194;BME280;49289;51.670;5.624;2022-09-24T00:35:57;101435.38;;;19.98;65.39
63194;BME280;49289;51.670;5.624;2022-09-24T00:37:45;101437.28;;;20.18;64.80
63194;BME280;49289;51.670;5.624;2022-09-24T00:39:33;101427.63;;;20.19;64.71
63194;BME280;49289;51.670;5.624;2022-09-24T00:41:21;101432.21;;;19.98;65.16
63194;BME280;49289;51.670;5.624;2022-09-24T00:45:13;101429.80;;;20.04;64.91
63194;BME280;49289;51.670;5.624;2022-09-24T00:47:01;101427.32;;;20.01;64.33
63194;BME280;49289;51.670;5.624;2022-09-24T00:48:49;101424.88;;;19.84;65.33
63194;BME280;49289;51.670;5.624;2022-09-24T00:50:36;101426.78;;;19.98;65.09
63194;BME280;49289;51.670;5.624;2022-09-24T00:52:23;101423.37;;;19.98;64.30
63194;BME280;49289;51.670;5.624;2022-09-24T00:54:11;101423.74;;;20.06;64.51
63194;BME280;49289;51.670;5.624;2022-09-24T00:55:59;101420.34;;;20.08;64.36
63194;BME280;49289;51.670;5.624;2022-09-24T00:57:46;101418.62;;;20.03;64.57
63194;BME280;49289;51.670;5.624;2022-09-24T00:59:33;101418.67;;;19.94;64.89
63194;BME280;49289;51.670;5.624;2022-09-24T01:01:21;101396.81;;;19.65;64.95
63194;BME280;49289;51.670;5.624;2022-09-24T01:03:08;101411.10;;;19.88;64.80
63194;BME280;49289;51.670;5.624;2022-09-24T01:04:54;101407.89;;;19.99;64.77
63194;BME280;49289;51.670;5.624;2022-09-24T01:06:41;101408.45;;;20.10;64.43
63194;BME280;49289;51.670;5.624;2022-09-24T01:08:28;101407.98;;;20.27;64.19
63194;BME280;49289;51.670;5.624;2022-09-24T01:10:15;101407.13;;;20.11;64.30
63194;BME280;49289;51.670;5.624;2022-09-24T01:12:06;101401.77;;;20.30;63.98
63194;BME280;49289;51.670;5.624;2022-09-24T01:14:01;101404.70;;;20.17;64.27
63194;BME280;49289;51.670;5.624;2022-09-24T01:15:48;101401.05;;;20.26;63.71
63194;BME280;49289;51.670;5.624;2022-09-24T01:17:37;101380.37;;;20.10;64.25
63194;BME280;49289;51.670;5.624;2022-09-24T01:21:37;101392.72;;;20.21;64.19
63194;BME280;49289;51.670;5.624;2022-09-24T01:23:36;101389.41;;;20.37;63.69
63194;BME280;49289;51.670;5.624;2022-09-24T01:25:26;101390.13;;;20.45;63.39
63194;BME280;49289;51.670;5.624;2022-09-24T01:27:15;101386.55;;;20.26;63.81
63194;BME280;49289;51.670;5.624;2022-09-24T01:30:57;101385.00;;;20.39;63.69
63194;BME280;49289;51.670;5.624;2022-09-24T01:32:47;101380.31;;;20.27;63.34
63194;BME280;49289;51.670;5.624;2022-09-24T01:34:33;101378.73;;;20.12;63.89
63194;BME280;49289;51.670;5.624;2022-09-24T01:36:19;101373.23;;;20.21;63.77
63194;BME280;49289;51.670;5.624;2022-09-24T01:38:07;101375.01;;;20.30;63.47
63194;BME280;49289;51.670;5.624;2022-09-24T01:39:55;101375.11;;;20.08;63.46
63194;BME280;49289;51.670;5.624;2022-09-24T01:41:42;101370.25;;;20.01;64.09
63194;BME280;49289;51.670;5.624;2022-09-24T01:43:33;101371.55;;;19.88;63.83
63194;BME280;49289;51.670;5.624;2022-09-24T01:45:21;101373.61;;;19.95;63.97
63194;BME280;49289;51.670;5.624;2022-09-24T01:47:08;101355.20;;;19.95;63.93
63194;BME280;49289;51.670;5.624;2022-09-24T01:48:56;101373.45;;;20.09;63.27
63194;BME280;49289;51.670;5.624;2022-09-24T01:50:45;101370.03;;;20.09;63.54
63194;BME280;49289;51.670;5.624;2022-09-24T01:52:33;101368.87;;;20.19;63.46
63194;BME280;49289;51.670;5.624;2022-09-24T01:54:21;101367.14;;;20.12;63.77
63194;BME280;49289;51.670;5.624;2022-09-24T01:56:10;101367.59;;;20.16;63.62
63194;BME280;49289;51.670;5.624;2022-09-24T01:57:59;101363.88;;;20.10;63.72
63194;BME280;49289;51.670;5.624;2022-09-24T01:59:47;101344.36;;;20.08;63.51
63194;BME280;49289;51.670;5.624;2022-09-24T02:01:34;101341.30;;;20.10;63.60
63194;BME280;49289;51.670;5.624;2022-09-24T02:03:22;101353.45;;;20.24;63.73
63194;BME280;49289;51.670;5.624;2022-09-24T02:05:11;101357.42;;;20.30;63.31
63194;BME280;49289;51.670;5.624;2022-09-24T02:06:59;101355.28;;;20.24;63.57
63194;BME280;49289;51.670;5.624;2022-09-24T02:08:46;101338.36;;;20.24;63.41
63194;BME280;49289;51.670;5.624;2022-09-24T02:10:33;101342.13;;;19.66;64.30
63194;BME280;49289;51.670;5.624;2022-09-24T02:12:19;101355.70;;;20.10;63.73
63194;BME280;49289;51.670;5.624;2022-09-24T02:14:07;101352.98;;;20.29;63.40
63194;BME280;49289;51.670;5.624;2022-09-24T02:15:54;101353.55;;;20.36;63.25
63194;BME280;49289;51.670;5.624;2022-09-24T02:17:42;101335.19;;;20.33;63.04
63194;BME280;49289;51.670;5.624;2022-09-24T02:19:30;101337.96;;;20.26;63.09
63194;BME280;49289;51.670;5.624;2022-09-24T02:21:18;101351.95;;;20.41;63.24
63194;BME280;49289;51.670;5.624;2022-09-24T02:23:06;101350.23;;;20.38;63.23
63194;BME280;49289;51.670;5.624;2022-09-24T02:24:55;101346.28;;;20.41;63.18
63194;BME280;49289;51.670;5.624;2022-09-24T02:26:42;101344.83;;;20.40;63.16
63194;BME280;49289;51.670;5.624;2022-09-24T02:28:31;101338.62;;;20.41;63.17
63194;BME280;49289;51.670;5.624;2022-09-24T02:30:20;101342.19;;;20.46;62.88
63194;BME280;49289;51.670;5.624;2022-09-24T02:32:09;101325.19;;;20.33;63.14
63194;BME280;49289;51.670;5.624;2022-09-24T02:33:58;101336.54;;;20.42;63.05
63194;BME280;49289;51.670;5.624;2022-09-24T02:35:45;101341.42;;;20.44;63.19
63194;BME280;49289;51.670;5.624;2022-09-24T02:37:35;101344.04;;;20.48;63.03
63194;BME280;49289;51.670;5.624;2022-09-24T02:39:22;101339.13;;;20.19;63.18
63194;BME280;49289;51.670;5.624;2022-09-24T02:41:12;101339.45;;;20.34;63.37
63194;BME280;49289;51.670;5.624;2022-09-24T02:43:00;101317.98;;;20.28;63.23
63194;BME280;49289;51.670;5.624;2022-09-24T02:44:47;101331.70;;;20.25;62.77
63194;BME280;49289;51.670;5.624;2022-09-24T02:46:36;101337.91;;;20.39;63.17
63194;BME280;49289;51.670;5.624;2022-09-24T02:48:25;101334.78;;;20.35;63.13
63194;BME280;49289;51.670;5.624;2022-09-24T02:50:14;101334.21;;;20.36;63.08
63194;BME280;49289;51.670;5.624;2022-09-24T02:52:02;101330.66;;;20.43;63.14
63194;BME280;49289;51.670;5.624;2022-09-24T02:53:50;101321.68;;;20.46;63.05
63194;BME280;49289;51.670;5.624;2022-09-24T02:55:37;101326.27;;;20.47;63.08
63194;BME280;49289;51.670;5.624;2022-09-24T02:57:24;101323.80;;;20.27;63.40
63194;BME280;49289;51.670;5.624;2022-09-24T02:59:11;101326.17;;;20.15;63.49
63194;BME280;49289;51.670;5.624;2022-09-24T03:00:59;101325.48;;;20.12;63.64
63194;BME280;49289;51.670;5.624;2022-09-24T03:02:48;101327.60;;;20.07;63.69
63194;BME280;49289;51.670;5.624;2022-09-24T03:04:35;101324.05;;;20.10;63.73
63194;BME280;49289;51.670;5.624;2022-09-24T03:06:22;101320.81;;;20.03;63.34
63194;BME280;49289;51.670;5.624;2022-09-24T03:08:09;101324.39;;;20.11;62.77
63194;BME280;49289;51.670;5.624;2022-09-24T03:09:56;101307.55;;;19.95;63.69
63194;BME280;49289;51.670;5.624;2022-09-24T03:11:43;101305.63;;;20.10;63.36
63194;BME280;49289;51.670;5.624;2022-09-24T03:13:30;101320.30;;;19.81;63.96
63194;BME280;49289;51.670;5.624;2022-09-24T03:15:18;101320.00;;;19.99;63.80
63194;BME280;49289;51.670;5.624;2022-09-24T03:17:05;101318.19;;;20.07;63.51
63194;BME280;49289;51.670;5.624;2022-09-24T03:18:52;101315.11;;;20.07;63.37
63194;BME280;49289;51.670;5.624;2022-09-24T03:20:40;101301.03;;;19.84;63.62
63194;BME280;49289;51.670;5.624;2022-09-24T03:22:27;101313.75;;;20.05;63.47
63194;BME280;49289;51.670;5.624;2022-09-24T03:24:16;101313.15;;;19.88;63.91
63194;BME280;49289;51.670;5.624;2022-09-24T03:26:04;101312.55;;;19.72;63.49
63194;BME280;49289;51.670;5.624;2022-09-24T03:27:52;101318.19;;;19.93;63.59
63194;BME280;49289;51.670;5.624;2022-09-24T03:29:40;101314.73;;;20.02;63.79
63194;BME280;49289;51.670;5.624;2022-09-24T03:31:28;101309.88;;;19.94;63.78
63194;BME280;49289;51.670;5.624;2022-09-24T03:33:15;101291.00;;;19.89;63.80
63194;BME280;49289;51.670;5.624;2022-09-24T03:35:03;101311.13;;;19.71;64.13
63194;BME280;49289;51.670;5.624;2022-09-24T03:36:50;101294.31;;;19.64;64.29
63194;BME280;49289;51.670;5.624;2022-09-24T03:38:39;101293.98;;;19.81;63.79
63194;BME280;49289;51.670;5.624;2022-09-24T03:40:28;101308.22;;;19.59;64.10
63194;BME280;49289;51.670;5.624;2022-09-24T03:42:17;101308.60;;;19.69;64.59
63194;BME280;49289;51.670;5.624;2022-09-24T03:44:06;101311.44;;;19.52;64.29
63194;BME280;49289;51.670;5.624;2022-09-24T03:45:53;101306.72;;;19.46;64.96
63194;BME280;49289;51.670;5.624;2022-09-24T03:47:41;101309.34;;;19.39;65.13
63194;BME280;49289;51.670;5.624;2022-09-24T03:49:29;101308.31;;;19.11;65.68
63194;BME280;49289;51.670;5.624;2022-09-24T03:51:17;101309.42;;;18.97;66.50
63194;BME280;49289;51.670;5.624;2022-09-24T03:53:04;101288.16;;;19.03;66.24
63194;BME280;49289;51.670;5.624;2022-09-24T03:54:51;101302.41;;;19.62;64.92
63194;BME280;49289;51.670;5.624;2022-09-24T03:56:38;101286.81;;;19.63;64.62
63194;BME280;49289;51.670;5.624;2022-09-24T03:58:27;101287.45;;;19.77;64.18
63194;BME280;49289;51.670;5.624;2022-09-24T04:00:17;101288.36;;;19.68;64.23
63194;BME280;49289;51.670;5.624;2022-09-24T04:02:05;101295.21;;;19.53;65.10
63194;BME280;49289;51.670;5.624;2022-09-24T04:03:53;101293.38;;;19.52;65.12
63194;BME280;49289;51.670;5.624;2022-09-24T04:05:41;101295.30;;;19.79;64.70
63194;BME280;49289;51.670;5.624;2022-09-24T04:07:29;101288.06;;;19.40;65.37
63194;BME280;49289;51.670;5.624;2022-09-24T04:09:17;101291.49;;;19.47;65.09
63194;BME280;49289;51.670;5.624;2022-09-24T04:11:05;101289.84;;;19.29;65.96
63194;BME280;49289;51.670;5.624;2022-09-24T04:12:53;101285.30;;;19.44;65.27
63194;BME280;49289;51.670;5.624;2022-09-24T04:14:41;101286.95;;;19.30;65.46
63194;BME280;49289;51.670;5.624;2022-09-24T04:16:31;101268.63;;;19.38;65.38
63194;BME280;49289;51.670;5.624;2022-09-24T04:18:19;101281.84;;;19.66;64.93
63194;BME280;49289;51.670;5.624;2022-09-24T04:20:06;101278.52;;;19.48;65.23
63194;BME280;49289;51.670;5.624;2022-09-24T04:21:53;101281.95;;;19.69;64.74
63194;BME280;49289;51.670;5.624;2022-09-24T04:23:40;101270.89;;;19.70;64.89
63194;BME280;49289;51.670;5.624;2022-09-24T04:25:29;101284.48;;;19.87;64.59
63194;BME280;49289;51.670;5.624;2022-09-24T04:27:18;101278.95;;;19.54;65.12
63194;BME280;49289;51.670;5.624;2022-09-24T04:29:06;101280.37;;;19.42;65.47
63194;BME280;49289;51.670;5.624;2022-09-24T04:30:54;101278.75;;;19.64;65.49
63194;BME280;49289;51.670;5.624;2022-09-24T04:32:43;101277.59;;;19.65;65.24
63194;BME280;49289;51.670;5.624;2022-09-24T04:34:30;101265.97;;;19.68;64.99
63194;BME280;49289;51.670;5.624;2022-09-24T04:36:17;101266.16;;;19.86;64.12
63194;BME280;49289;51.670;5.624;2022-09-24T04:38:04;101262.59;;;19.45;65.65
63194;BME280;49289;51.670;5.624;2022-09-24T04:39:52;101274.31;;;19.52;65.45
63194;BME280;49289;51.670;5.624;2022-09-24T04:41:41;101279.64;;;19.57;65.58
63194;BME280;49289;51.670;5.624;2022-09-24T04:43:29;101276.15;;;19.63;65.54
63194;BME280;49289;51.670;5.624;2022-09-24T04:45:18;101278.34;;;19.74;65.03
63194;BME280;49289;51.670;5.624;2022-09-24T04:47:05;101280.05;;;19.93;64.71
63194;BME280;49289;51.670;5.624;2022-09-24T04:48:52;101279.72;;;19.80;64.18
63194;BME280;49289;51.670;5.624;2022-09-24T04:50:39;101277.15;;;19.32;65.30
63194;BME280;49289;51.670;5.624;2022-09-24T04:52:26;101262.66;;;19.31;65.71
63194;BME280;49289;51.670;5.624;2022-09-24T04:54:13;101274.45;;;19.55;64.97
63194;BME280;49289;51.670;5.624;2022-09-24T04:56:00;101277.98;;;19.71;65.17
63194;BME280;49289;51.670;5.624;2022-09-24T04:57:48;101276.27;;;19.28;65.41
63194;BME280;49289;51.670;5.624;2022-09-24T04:59:36;101275.86;;;19.10;65.91
63194;BME280;49289;51.670;5.624;2022-09-24T05:01:25;101275.41;;;19.26;66.02
63194;BME280;49289;51.670;5.624;2022-09-24T05:03:13;101274.39;;;19.39;65.76
63194;BME280;49289;51.670;5.624;2022-09-24T05:05:01;101278.81;;;19.63;64.91
63194;BME280;49289;51.670;5.624;2022-09-24T05:06:49;101276.85;;;19.28;65.79
63194;BME280;49289;51.670;5.624;2022-09-24T05:08:36;101262.44;;;19.47;65.28
63194;BME280;49289;51.670;5.624;2022-09-24T05:10:23;101282.80;;;19.69;65.10
63194;BME280;49289;51.670;5.624;2022-09-24T05:12:12;101265.70;;;19.54;65.07
63194;BME280;49289;51.670;5.624;2022-09-24T05:14:00;101264.05;;;19.55;64.68
63194;BME280;49289;51.670;5.624;2022-09-24T05:15:47;101283.02;;;19.67;64.94
63194;BME280;49289;51.670;5.624;2022-09-24T05:17:34;101281.96;;;19.78;65.04
63194;BME280;49289;51.670;5.624;2022-09-24T05:19:22;101280.99;;;19.73;64.74
63194;BME280;49289;51.670;5.624;2022-09-24T05:21:10;101278.82;;;18.97;66.27
63194;BME280;49289;51.670;5.624;2022-09-24T05:22:58;101277.55;;;19.20;65.97
63194;BME280;49289;51.670;5.624;2022-09-24T05:24:46;101275.97;;;19.39;65.90
63194;BME280;49289;51.670;5.624;2022-09-24T05:26:35;101285.56;;;19.58;65.43
63194;BME280;49289;51.670;5.624;2022-09-24T05:28:24;101281.77;;;19.37;65.70
63194;BME280;49289;51.670;5.624;2022-09-24T05:30:12;101280.31;;;19.45;65.89
63194;BME280;49289;51.670;5.624;2022-09-24T05:32:00;101281.97;;;19.21;66.64
63194;BME280;49289;51.670;5.624;2022-09-24T05:33:48;101278.41;;;19.46;65.66
63194;BME280;49289;51.670;5.624;2022-09-24T05:35:35;101284.47;;;19.63;65.76
63194;BME280;49289;51.670;5.624;2022-09-24T05:37:22;101277.03;;;19.37;66.02
63194;BME280;49289;51.670;5.624;2022-09-24T05:39:09;101275.95;;;19.04;66.83
63194;BME280;49289;51.670;5.624;2022-09-24T05:40:56;101264.29;;;18.98;67.16
63194;BME280;49289;51.670;5.624;2022-09-24T05:42:44;101282.04;;;19.43;65.88
63194;BME280;49289;51.670;5.624;2022-09-24T05:44:32;101284.39;;;19.14;66.70
63194;BME280;49289;51.670;5.624;2022-09-24T05:46:20;101283.06;;;19.25;66.27
63194;BME280;49289;51.670;5.624;2022-09-24T05:48:09;101284.84;;;19.36;66.22
63194;BME280;49289;51.670;5.624;2022-09-24T05:49:56;101271.66;;;19.25;66.04
63194;BME280;49289;51.670;5.624;2022-09-24T05:51:45;101291.13;;;19.44;66.07
63194;BME280;49289;51.670;5.624;2022-09-24T05:53:33;101290.56;;;19.27;66.34
63194;BME280;49289;51.670;5.624;2022-09-24T05:55:21;101289.92;;;19.04;66.77
63194;BME280;49289;51.670;5.624;2022-09-24T05:57:08;101271.03;;;19.10;66.82
63194;BME280;49289;51.670;5.624;2022-09-24T05:58:55;101281.11;;;19.00;66.57
63194;BME280;49289;51.670;5.624;2022-09-24T06:00:42;101303.93;;;18.61;68.14
63194;BME280;49289;51.670;5.624;2022-09-24T06:02:29;101299.31;;;18.71;68.12
63194;BME280;49289;51.670;5.624;2022-09-24T06:04:17;101305.63;;;18.70;68.15
63194;BME280;49289;51.670;5.624;2022-09-24T06:06:05;101296.35;;;19.02;67.27
63194;BME280;49289;51.670;5.624;2022-09-24T06:07:54;101301.57;;;19.29;66.73
63194;BME280;49289;51.670;5.624;2022-09-24T06:09:42;101304.04;;;19.53;65.86
63194;BME280;49289;51.670;5.624;2022-09-24T06:11:30;101300.41;;;19.22;66.30
63194;BME280;49289;51.670;5.624;2022-09-24T06:13:18;101308.53;;;18.86;67.58
63194;BME280;49289;51.670;5.624;2022-09-24T06:15:06;101302.66;;;19.05;66.99
63194;BME280;49289;51.670;5.624;2022-09-24T06:16:38;101305.89;;;18.33;69.23
63194;BME280;49289;51.670;5.624;2022-09-24T06:18:25;101287.41;;;18.82;67.77
63194;BME280;49289;51.670;5.624;2022-09-24T06:20:13;101289.99;;;18.70;67.90
63194;BME280;49289;51.670;5.624;2022-09-24T06:22:01;101304.15;;;18.88;67.72
63194;BME280;49289;51.670;5.624;2022-09-24T06:23:49;101303.64;;;19.03;67.06
63194;BME280;49289;51.670;5.624;2022-09-24T06:25:37;101301.32;;;19.10;67.12
63194;BME280;49289;51.670;5.624;2022-09-24T06:27:25;101302.27;;;19.02;67.30
63194;BME280;49289;51.670;5.624;2022-09-24T06:29:13;101284.75;;;19.02;67.23
63194;BME280;49289;51.670;5.624;2022-09-24T06:31:00;101300.28;;;19.21;67.13
63194;BME280;49289;51.670;5.624;2022-09-24T06:32:47;101303.38;;;19.41;66.37
63194;BME280;49289;51.670;5.624;2022-09-24T06:34:34;101292.77;;;19.12;66.88
63194;BME280;49289;51.670;5.624;2022-09-24T06:36:07;101307.38;;;19.16;66.88
63194;BME280;49289;51.670;5.624;2022-09-24T06:37:40;101305.25;;;19.23;66.96
63194;BME280;49289;51.670;5.624;2022-09-24T06:39:27;101311.39;;;19.36;66.87
63194;BME280;49289;51.670;5.624;2022-09-24T06:41:14;101311.11;;;18.98;67.31
63194;BME280;49289;51.670;5.624;2022-09-24T06:43:02;101297.04;;;18.91;67.66
63194;BME280;49289;51.670;5.624;2022-09-24T06:44:50;101318.58;;;18.81;68.14
63194;BME280;49289;51.670;5.624;2022-09-24T06:46:39;101319.99;;;18.97;68.09
63194;BME280;49289;51.670;5.624;2022-09-24T06:48:27;101318.02;;;19.09;67.56
63194;BME280;49289;51.670;5.624;2022-09-24T06:50:15;101318.61;;;19.16;67.47
63194;BME280;49289;51.670;5.624;2022-09-24T06:52:05;101320.17;;;19.14;67.20
63194;BME280;49289;51.670;5.624;2022-09-24T06:53:55;101318.47;;;19.05;67.84
63194;BME280;49289;51.670;5.624;2022-09-24T06:55:42;101321.73;;;19.19;67.60
63194;BME280;49289;51.670;5.624;2022-09-24T06:57:29;101320.70;;;19.35;66.95
63194;BME280;49289;51.670;5.624;2022-09-24T06:59:17;101309.78;;;19.26;67.22
63194;BME280;49289;51.670;5.624;2022-09-24T07:01:06;101312.23;;;19.05;67.21
63194;BME280;49289;51.670;5.624;2022-09-24T07:02:55;101311.02;;;18.97;67.39
63194;BME280;49289;51.670;5.624;2022-09-24T07:04:43;101326.02;;;18.78;68.39
63194;BME280;49289;51.670;5.624;2022-09-24T07:06:32;101334.36;;;18.45;69.11
63194;BME280;49289;51.670;5.624;2022-09-24T07:08:20;101332.09;;;18.72;68.56
63194;BME280;49289;51.670;5.624;2022-09-24T07:10:08;101331.08;;;18.77;68.48
63194;BME280;49289;51.670;5.624;2022-09-24T07:11:55;101331.55;;;19.20;67.31
63194;BME280;49289;51.670;5.624;2022-09-24T07:13:42;101317.25;;;18.97;67.75
63194;BME280;49289;51.670;5.624;2022-09-24T07:15:30;101332.13;;;18.90;68.21
63194;BME280;49289;51.670;5.624;2022-09-24T07:17:19;101329.76;;;18.87;68.14
63194;BME280;49289;51.670;5.624;2022-09-24T07:19:07;101335.69;;;19.05;67.97
63194;BME280;49289;51.670;5.624;2022-09-24T07:20:58;101334.63;;;19.12;67.68
63194;BME280;49289;51.670;5.624;2022-09-24T07:22:48;101340.30;;;19.31;67.21
63194;BME280;49289;51.670;5.624;2022-09-24T07:24:37;101345.97;;;19.02;67.71
63194;BME280;49289;51.670;5.624;2022-09-24T07:26:25;101344.53;;;19.20;67.44
63194;BME280;49289;51.670;5.624;2022-09-24T07:28:14;101340.97;;;18.58;68.97
63194;BME280;49289;51.670;5.624;2022-09-24T07:30:02;101349.81;;;19.00;68.06
63194;BME280;49289;51.670;5.624;2022-09-24T07:31:49;101348.45;;;19.24;67.50
63194;BME280;49289;51.670;5.624;2022-09-24T07:33:38;101344.08;;;19.45;66.99
63194;BME280;49289;51.670;5.624;2022-09-24T07:35:26;101349.52;;;19.59;66.58
63194;BME280;49289;51.670;5.624;2022-09-24T07:37:13;101348.91;;;19.53;66.81
63194;BME280;49289;51.670;5.624;2022-09-24T07:39:00;101355.20;;;19.67;66.53
63194;BME280;49289;51.670;5.624;2022-09-24T07:40:47;101358.56;;;19.77;66.15
63194;BME280;49289;51.670;5.624;2022-09-24T07:42:36;101355.44;;;19.80;66.08
63194;BME280;49289;51.670;5.624;2022-09-24T07:44:24;101360.24;;;19.78;66.09
63194;BME280;49289;51.670;5.624;2022-09-24T07:46:12;101358.58;;;19.83;66.19
63194;BME280;49289;51.670;5.624;2022-09-24T07:48:03;101362.24;;;19.91;65.81
63194;BME280;49289;51.670;5.624;2022-09-24T07:49:50;101359.03;;;19.62;66.66
63194;BME280;49289;51.670;5.624;2022-09-24T07:51:39;101363.61;;;19.81;66.11
63194;BME280;49289;51.670;5.624;2022-09-24T07:53:27;101362.13;;;19.75;65.89
63194;BME280;49289;51.670;5.624;2022-09-24T07:55:15;101365.66;;;19.78;66.14
63194;BME280;49289;51.670;5.624;2022-09-24T07:57:06;101366.24;;;19.83;66.36
63194;BME280;49289;51.670;5.624;2022-09-24T07:58:52;101373.08;;;19.84;65.99
63194;BME280;49289;51.670;5.624;2022-09-24T08:00:41;101370.59;;;19.72;65.97
63194;BME280;49289;51.670;5.624;2022-09-24T08:02:29;101368.42;;;19.80;66.23
63194;BME280;49289;51.670;5.624;2022-09-24T08:04:17;101366.41;;;19.83;66.23
63194;BME280;49289;51.670;5.624;2022-09-24T08:06:04;101368.98;;;19.90;66.02
63194;BME280;49289;51.670;5.624;2022-09-24T08:07:55;101373.95;;;19.52;66.44
63194;BME280;49289;51.670;5.624;2022-09-24T08:09:42;101370.80;;;19.41;66.86
63194;BME280;49289;51.670;5.624;2022-09-24T08:11:29;101374.02;;;19.39;67.17
63194;BME280;49289;51.670;5.624;2022-09-24T08:13:18;101365.72;;;19.52;66.66
63194;BME280;49289;51.670;5.624;2022-09-24T08:15:06;101379.81;;;19.20;67.42
63194;BME280;49289;51.670;5.624;2022-09-24T08:16:54;101376.73;;;19.48;67.07
63194;BME280;49289;51.670;5.624;2022-09-24T08:18:41;101366.70;;;19.55;66.41
63194;BME280;49289;51.670;5.624;2022-09-24T08:20:28;101376.87;;;19.75;66.30
63194;BME280;49289;51.670;5.624;2022-09-24T08:22:15;101387.75;;;18.95;68.27
63194;BME280;49289;51.670;5.624;2022-09-24T08:24:03;101387.03;;;19.18;67.66
63194;BME280;49289;51.670;5.624;2022-09-24T08:25:52;101384.81;;;19.48;66.88
63194;BME280;49289;51.670;5.624;2022-09-24T08:27:40;101388.59;;;19.66;66.43
63194;BME280;49289;51.670;5.624;2022-09-24T08:29:28;101391.62;;;19.70;66.36
63194;BME280;49289;51.670;5.624;2022-09-24T08:31:15;101390.61;;;19.68;66.36
63194;BME280;49289;51.670;5.624;2022-09-24T08:33:02;101394.23;;;19.26;67.79
63194;BME280;49289;51.670;5.624;2022-09-24T08:34:49;101391.84;;;19.55;67.03
63194;BME280;49289;51.670;5.624;2022-09-24T08:36:37;101381.20;;;19.68;66.55
63194;BME280;49289;51.670;5.624;2022-09-24T08:38:26;101392.06;;;19.64;66.55
63194;BME280;49289;51.670;5.624;2022-09-24T08:40:14;101393.92;;;19.40;66.93
63194;BME280;49289;51.670;5.624;2022-09-24T08:42:05;101395.58;;;19.43;67.53
63194;BME280;49289;51.670;5.624;2022-09-24T08:43:57;101394.06;;;19.71;66.66
63194;BME280;49289;51.670;5.624;2022-09-24T08:45:46;101393.99;;;19.65;66.74
63194;BME280;49289;51.670;5.624;2022-09-24T08:47:36;101389.05;;;19.77;66.08
63194;BME280;49289;51.670;5.624;2022-09-24T08:49:23;101403.75;;;19.93;66.09
63194;BME280;49289;51.670;5.624;2022-09-24T08:51:12;101401.62;;;19.89;66.11
63194;BME280;49289;51.670;5.624;2022-09-24T08:53:09;101398.25;;;19.74;66.62
63194;BME280;49289;51.670;5.624;2022-09-24T08:54:56;101398.64;;;19.59;66.88
63194;BME280;49289;51.670;5.624;2022-09-24T08:56:44;101401.52;;;19.87;66.29
63194;BME280;49289;51.670;5.624;2022-09-24T08:58:37;101401.39;;;19.84;66.59
63194;BME280;49289;51.670;5.624;2022-09-24T09:00:25;101382.12;;;19.41;66.70
63194;BME280;49289;51.670;5.624;2022-09-24T09:02:27;101405.74;;;19.55;67.03
63194;BME280;49289;51.670;5.624;2022-09-24T09:04:17;101406.77;;;19.75;66.64
63194;BME280;49289;51.670;5.624;2022-09-24T09:06:08;101406.81;;;19.54;66.62
63194;BME280;49289;51.670;5.624;2022-09-24T09:07:55;101401.01;;;19.45;67.13
63194;BME280;49289;51.670;5.624;2022-09-24T09:09:47;101412.36;;;19.63;66.81
63194;BME280;49289;51.670;5.624;2022-09-24T09:11:34;101400.91;;;19.73;66.38
63194;BME280;49289;51.670;5.624;2022-09-24T09:13:22;101414.23;;;19.67;66.85
63194;BME280;49289;51.670;5.624;2022-09-24T09:15:11;101411.41;;;19.81;66.07
63194;BME280;49289;51.670;5.624;2022-09-24T09:17:00;101414.35;;;19.88;66.16
63194;BME280;49289;51.670;5.624;2022-09-24T09:18:47;101419.27;;;19.37;67.49
63194;BME280;49289;51.670;5.624;2022-09-24T09:20:37;101404.06;;;19.33;67.59
63194;BME280;49289;51.670;5.624;2022-09-24T09:22:23;101422.32;;;19.35;67.59
63194;BME280;49289;51.670;5.624;2022-09-24T09:24:11;101424.96;;;19.43;67.60
63194;BME280;49289;51.670;5.624;2022-09-24T09:25:58;101424.84;;;19.14;68.29
63194;BME280;49289;51.670;5.624;2022-09-24T09:27:46;101423.97;;;19.44;67.49
63194;BME280;49289;51.670;5.624;2022-09-24T09:29:34;101409.70;;;19.70;66.71